createdAt,value
2023-12-26T00:00:25.625Z,986.54
2023-12-26T00:01:25.673Z,986.58
2023-12-26T00:02:25.603Z,986.54
2023-12-26T00:03:25.710Z,986.55
2023-12-26T00:04:28.754Z,986.54
2023-12-26T00:05:25.611Z,986.52
2023-12-26T00:06:25.635Z,986.51
2023-12-26T00:07:25.579Z,986.53
2023-12-26T00:08:25.566Z,986.53
2023-12-26T00:09:25.487Z,986.54
2023-12-26T00:10:25.495Z,986.51
2023-12-26T00:11:25.466Z,986.50
2023-12-26T00:12:25.496Z,986.52
2023-12-26T00:13:25.481Z,986.41
2023-12-26T00:14:25.437Z,986.44
2023-12-26T00:15:25.435Z,986.44
2023-12-26T00:16:25.405Z,986.42
2023-12-26T00:17:25.534Z,986.41
2023-12-26T00:18:25.507Z,986.49
2023-12-26T00:19:25.454Z,986.43
2023-12-26T00:20:25.371Z,986.45
2023-12-26T00:21:25.364Z,986.43
2023-12-26T00:22:25.367Z,986.38
2023-12-26T00:23:25.350Z,986.42
2023-12-26T00:24:25.321Z,986.33
2023-12-26T00:25:25.329Z,986.42
2023-12-26T00:26:25.325Z,986.37
2023-12-26T00:27:25.324Z,986.35
2023-12-26T00:28:25.289Z,986.37
2023-12-26T00:29:25.288Z,986.34
2023-12-26T00:30:25.396Z,986.31
2023-12-26T00:31:25.284Z,986.30
2023-12-26T00:32:25.271Z,986.29
2023-12-26T00:33:25.480Z,986.33
2023-12-26T00:34:25.302Z,986.26
2023-12-26T00:35:25.219Z,986.24
2023-12-26T00:36:25.239Z,986.26
2023-12-26T00:37:25.198Z,986.24
2023-12-26T00:38:25.180Z,986.22
2023-12-26T00:39:25.176Z,986.26
2023-12-26T00:40:25.172Z,986.22
2023-12-26T00:41:25.177Z,986.26
2023-12-26T00:42:25.251Z,986.22
2023-12-26T00:43:25.138Z,986.21
2023-12-26T00:44:25.120Z,986.15
2023-12-26T00:45:25.146Z,986.17
2023-12-26T00:46:25.132Z,986.16
2023-12-26T00:47:25.133Z,986.11
2023-12-26T00:48:25.162Z,986.16
2023-12-26T00:49:25.157Z,986.16
2023-12-26T00:50:25.068Z,986.14
2023-12-26T00:51:25.064Z,986.12
2023-12-26T00:52:25.036Z,986.13
2023-12-26T00:53:25.030Z,986.18
2023-12-26T00:54:25.029Z,986.18
2023-12-26T00:55:25.031Z,986.10
2023-12-26T00:56:25.008Z,986.14
2023-12-26T00:57:25.005Z,986.11
2023-12-26T00:58:24.982Z,986.12
2023-12-26T00:59:24.980Z,986.11
2023-12-26T01:00:25.040Z,986.11
2023-12-26T01:01:24.950Z,986.08
2023-12-26T01:02:24.928Z,986.11
2023-12-26T01:03:24.955Z,986.21
2023-12-26T01:04:24.944Z,986.16
2023-12-26T01:05:25.044Z,986.10
2023-12-26T01:06:24.906Z,986.13
2023-12-26T01:07:24.886Z,986.16
2023-12-26T01:08:24.878Z,986.14
2023-12-26T01:09:24.876Z,986.14
2023-12-26T01:10:24.865Z,986.10
2023-12-26T01:11:24.842Z,986.11
2023-12-26T01:12:24.822Z,986.16
2023-12-26T01:13:24.832Z,986.13
2023-12-26T01:14:24.809Z,986.10
2023-12-26T01:15:24.805Z,986.14
2023-12-26T01:16:24.783Z,986.12
2023-12-26T01:17:24.822Z,986.14
2023-12-26T01:18:24.869Z,986.20
2023-12-26T01:19:24.909Z,986.12
2023-12-26T01:20:24.736Z,986.14
2023-12-26T01:21:24.731Z,986.06
2023-12-26T01:22:24.854Z,986.05
2023-12-26T01:23:24.776Z,986.05
2023-12-26T01:24:24.693Z,986.07
2023-12-26T01:25:24.703Z,986.07
2023-12-26T01:26:24.693Z,986.04
2023-12-26T01:27:25.221Z,986.06
2023-12-26T01:28:24.652Z,986.03
2023-12-26T01:29:24.683Z,986.10
2023-12-26T01:30:24.708Z,986.01
2023-12-26T01:31:24.637Z,986.00
2023-12-26T01:32:24.655Z,986.01
2023-12-26T01:33:24.801Z,985.98
2023-12-26T01:34:24.654Z,985.95
2023-12-26T01:35:24.602Z,986.07
2023-12-26T01:36:24.585Z,986.05
2023-12-26T01:37:24.611Z,985.96
2023-12-26T01:38:24.549Z,985.97
2023-12-26T01:39:24.549Z,985.96
2023-12-26T01:40:24.532Z,986.05
2023-12-26T01:41:24.550Z,986.03
2023-12-26T01:42:24.518Z,986.07
2023-12-26T01:43:24.543Z,985.98
2023-12-26T01:44:24.493Z,986.00
2023-12-26T01:45:24.538Z,986.00
2023-12-26T01:46:24.500Z,986.11
2023-12-26T01:47:24.478Z,986.07
2023-12-26T01:48:24.662Z,986.15
2023-12-26T01:49:24.546Z,986.24
2023-12-26T01:50:24.442Z,986.19
2023-12-26T01:51:24.554Z,986.13
2023-12-26T01:52:24.423Z,986.10
2023-12-26T01:53:24.412Z,986.20
2023-12-26T01:54:24.391Z,985.99
2023-12-26T01:55:24.402Z,986.03
2023-12-26T01:56:25.071Z,986.04
2023-12-26T01:57:24.366Z,986.00
2023-12-26T01:58:24.349Z,986.02
2023-12-26T01:59:24.360Z,986.01
2023-12-26T02:00:24.339Z,986.06
2023-12-26T02:01:24.338Z,986.08
2023-12-26T02:02:24.313Z,986.05
2023-12-26T02:03:24.462Z,986.09
2023-12-26T02:04:24.305Z,986.03
2023-12-26T02:05:24.336Z,986.07
2023-12-26T02:06:24.283Z,986.01
2023-12-26T02:07:24.271Z,986.12
2023-12-26T02:08:24.252Z,986.04
2023-12-26T02:09:24.261Z,986.13
2023-12-26T02:10:24.240Z,986.11
2023-12-26T02:11:24.221Z,986.16
2023-12-26T02:12:24.210Z,986.12
2023-12-26T02:13:24.203Z,986.16
2023-12-26T02:14:24.202Z,986.14
2023-12-26T02:15:24.211Z,986.15
2023-12-26T02:16:24.154Z,986.10
2023-12-26T02:17:24.157Z,986.14
2023-12-26T02:18:24.285Z,986.17
2023-12-26T02:19:24.214Z,986.18
2023-12-26T02:20:24.122Z,986.16
2023-12-26T02:21:24.112Z,986.14
2023-12-26T02:22:24.270Z,986.16
2023-12-26T02:23:24.101Z,986.12
2023-12-26T02:24:24.119Z,986.08
2023-12-26T02:25:24.077Z,986.08
2023-12-26T02:26:24.054Z,986.09
2023-12-26T02:27:24.108Z,986.10
2023-12-26T02:28:24.053Z,986.06
2023-12-26T02:29:24.028Z,986.10
2023-12-26T02:30:24.118Z,986.12
2023-12-26T02:31:24.005Z,986.06
2023-12-26T02:32:24.284Z,986.06
2023-12-26T02:33:24.109Z,986.05
2023-12-26T02:34:24.154Z,986.02
2023-12-26T02:35:23.971Z,986.11
2023-12-26T02:36:23.969Z,986.11
2023-12-26T02:37:23.962Z,986.06
2023-12-26T02:38:23.950Z,986.12
2023-12-26T02:39:23.920Z,986.13
2023-12-26T02:40:23.909Z,986.20
2023-12-26T02:41:23.904Z,986.20
2023-12-26T02:42:23.905Z,986.25
2023-12-26T02:43:23.894Z,986.34
2023-12-26T02:44:23.856Z,986.39
2023-12-26T02:45:23.858Z,986.36
2023-12-26T02:46:23.844Z,986.39
2023-12-26T02:47:23.885Z,986.39
2023-12-26T02:48:23.935Z,986.39
2023-12-26T02:49:23.949Z,986.37
2023-12-26T02:50:23.814Z,986.40
2023-12-26T02:51:23.915Z,986.35
2023-12-26T02:52:23.817Z,986.34
2023-12-26T02:53:23.776Z,986.39
2023-12-26T02:54:23.772Z,986.25
2023-12-26T02:55:23.768Z,986.26
2023-12-26T02:56:23.760Z,986.21
2023-12-26T02:57:23.742Z,986.25
2023-12-26T02:58:23.723Z,986.22
2023-12-26T02:59:23.722Z,986.29
2023-12-26T03:00:23.708Z,986.31
2023-12-26T03:01:23.721Z,986.33
2023-12-26T03:02:23.757Z,986.29
2023-12-26T03:03:23.804Z,986.35
2023-12-26T03:04:23.671Z,986.34
2023-12-26T03:05:23.731Z,986.33
2023-12-26T03:06:23.663Z,986.44
2023-12-26T03:07:23.643Z,986.43
2023-12-26T03:08:23.610Z,986.44
2023-12-26T03:09:23.832Z,986.52
2023-12-26T03:10:23.608Z,986.51
2023-12-26T03:11:23.589Z,986.45
2023-12-26T03:12:23.580Z,986.53
2023-12-26T03:13:23.586Z,986.51
2023-12-26T03:14:23.574Z,986.56
2023-12-26T03:15:23.614Z,986.57
2023-12-26T03:16:23.533Z,986.55
2023-12-26T03:17:23.544Z,986.56
2023-12-26T03:18:23.599Z,986.54
2023-12-26T03:19:23.859Z,986.58
2023-12-26T03:20:23.506Z,986.59
2023-12-26T03:21:23.492Z,986.56
2023-12-26T03:22:23.464Z,986.57
2023-12-26T03:23:23.464Z,986.58
2023-12-26T03:24:23.469Z,986.61
2023-12-26T03:25:23.452Z,986.58
2023-12-26T03:26:23.425Z,986.56
2023-12-26T03:27:23.419Z,986.61
2023-12-26T03:28:23.432Z,986.61
2023-12-26T03:29:23.432Z,986.65
2023-12-26T03:30:23.502Z,986.62
2023-12-26T03:31:23.386Z,986.62
2023-12-26T03:32:23.395Z,986.61
2023-12-26T03:33:23.429Z,986.61
2023-12-26T03:34:23.403Z,986.67
2023-12-26T03:35:23.344Z,986.66
2023-12-26T03:36:23.337Z,986.62
2023-12-26T03:37:23.327Z,986.69
2023-12-26T03:38:23.327Z,986.70
2023-12-26T03:39:23.312Z,986.72
2023-12-26T03:40:23.284Z,986.71
2023-12-26T03:41:23.277Z,986.71
2023-12-26T03:42:23.332Z,986.67
2023-12-26T03:43:23.270Z,986.75
2023-12-26T03:44:23.245Z,986.74
2023-12-26T03:45:23.305Z,986.76
2023-12-26T03:46:23.223Z,986.76
2023-12-26T03:47:23.243Z,986.75
2023-12-26T03:48:23.338Z,986.75
2023-12-26T03:49:23.285Z,986.75
2023-12-26T03:50:23.196Z,986.82
2023-12-26T03:51:23.178Z,986.81
2023-12-26T03:52:23.181Z,986.83
2023-12-26T03:53:23.157Z,986.80
2023-12-26T03:54:23.139Z,986.76
2023-12-26T03:55:23.137Z,986.83
2023-12-26T03:56:23.110Z,986.79
2023-12-26T03:57:23.134Z,986.83
2023-12-26T03:58:23.142Z,986.86
2023-12-26T03:59:23.100Z,986.84
2023-12-26T04:00:23.072Z,986.87
2023-12-26T04:01:23.086Z,986.87
2023-12-26T04:02:23.069Z,986.90
2023-12-26T04:03:23.169Z,986.89
2023-12-26T04:04:23.154Z,986.87
2023-12-26T04:05:23.073Z,986.86
2023-12-26T04:06:23.056Z,986.85
2023-12-26T04:07:23.007Z,986.86
2023-12-26T04:08:22.990Z,986.81
2023-12-26T04:09:22.987Z,986.85
2023-12-26T04:10:22.976Z,986.88
2023-12-26T04:11:22.993Z,986.80
2023-12-26T04:12:22.952Z,986.86
2023-12-26T04:13:22.941Z,986.85
2023-12-26T04:14:22.933Z,986.84
2023-12-26T04:15:22.991Z,986.86
2023-12-26T04:16:22.933Z,986.81
2023-12-26T04:17:22.936Z,986.84
2023-12-26T04:18:22.986Z,986.82
2023-12-26T04:19:23.014Z,986.86
2023-12-26T04:20:22.891Z,986.85
2023-12-26T04:21:22.851Z,986.87
2023-12-26T04:22:22.859Z,986.88
2023-12-26T04:23:22.841Z,986.87
2023-12-26T04:24:22.834Z,986.89
2023-12-26T04:25:22.825Z,986.86
2023-12-26T04:26:22.822Z,986.88
2023-12-26T04:27:22.811Z,986.83
2023-12-26T04:28:22.782Z,986.89
2023-12-26T04:29:22.792Z,986.89
2023-12-26T04:30:22.928Z,986.93
2023-12-26T04:31:22.750Z,986.91
2023-12-26T04:32:22.742Z,986.90
2023-12-26T04:33:22.840Z,986.93
2023-12-26T04:34:22.870Z,986.91
2023-12-26T04:35:22.716Z,986.93
2023-12-26T04:36:22.774Z,986.97
2023-12-26T04:37:22.694Z,987.01
2023-12-26T04:38:22.697Z,986.98
2023-12-26T04:39:22.687Z,986.96
2023-12-26T04:40:22.662Z,986.97
2023-12-26T04:41:22.650Z,986.92
2023-12-26T04:42:22.646Z,986.92
2023-12-26T04:43:22.645Z,986.91
2023-12-26T04:44:22.628Z,986.92
2023-12-26T04:45:22.660Z,986.93
2023-12-26T04:46:22.638Z,986.95
2023-12-26T04:47:22.618Z,986.90
2023-12-26T04:48:22.726Z,986.94
2023-12-26T04:49:22.724Z,986.93
2023-12-26T04:50:22.569Z,987.01
2023-12-26T04:51:22.545Z,986.97
2023-12-26T04:52:22.535Z,987.00
2023-12-26T04:53:23.323Z,987.02
2023-12-26T04:54:22.536Z,987.00
2023-12-26T04:55:22.513Z,987.05
2023-12-26T04:56:22.495Z,987.10
2023-12-26T04:57:22.527Z,987.11
2023-12-26T04:58:22.514Z,987.07
2023-12-26T04:59:24.858Z,986.96
2023-12-26T05:00:22.487Z,987.04
2023-12-26T05:01:22.454Z,987.01
2023-12-26T05:02:22.542Z,986.99
2023-12-26T05:03:22.484Z,987.00
2023-12-26T05:04:22.485Z,987.01
2023-12-26T05:05:22.416Z,987.02
2023-12-26T05:06:22.637Z,987.00
2023-12-26T05:07:22.469Z,986.97
2023-12-26T05:08:22.398Z,987.00
2023-12-26T05:09:22.376Z,986.98
2023-12-26T05:10:22.349Z,987.03
2023-12-26T05:11:22.384Z,987.04
2023-12-26T05:12:22.329Z,986.99
2023-12-26T05:13:22.322Z,987.06
2023-12-26T05:14:22.316Z,987.14
2023-12-26T05:15:22.429Z,987.08
2023-12-26T05:16:22.303Z,987.07
2023-12-26T05:17:22.272Z,987.08
2023-12-26T05:18:22.416Z,987.10
2023-12-26T05:19:22.314Z,987.15
2023-12-26T05:20:30.329Z,987.16
2023-12-26T05:21:22.256Z,987.17
2023-12-26T05:22:22.235Z,987.14
2023-12-26T05:23:22.203Z,987.15
2023-12-26T05:24:22.205Z,987.14
2023-12-26T05:25:22.202Z,987.12
2023-12-26T05:26:22.194Z,987.15
2023-12-26T05:27:22.200Z,987.11
2023-12-26T05:28:22.177Z,987.22
2023-12-26T05:29:22.149Z,987.20
2023-12-26T05:30:22.334Z,987.21
2023-12-26T05:31:22.113Z,987.18
2023-12-26T05:32:22.254Z,987.22
2023-12-26T05:33:22.421Z,987.27
2023-12-26T05:34:22.195Z,987.26
2023-12-26T05:35:22.096Z,987.25
2023-12-26T05:36:22.150Z,987.25
2023-12-26T05:37:22.056Z,987.31
2023-12-26T05:38:22.059Z,987.29
2023-12-26T05:39:22.134Z,987.34
2023-12-26T05:40:22.031Z,987.35
2023-12-26T05:41:22.019Z,987.36
2023-12-26T05:42:22.035Z,987.34
2023-12-26T05:43:21.987Z,987.39
2023-12-26T05:44:22.003Z,987.46
2023-12-26T05:45:22.044Z,987.39
2023-12-26T05:46:21.963Z,987.39
2023-12-26T05:47:22.012Z,987.42
2023-12-26T05:48:22.144Z,987.51
2023-12-26T05:49:22.131Z,987.49
2023-12-26T05:50:22.006Z,987.49
2023-12-26T05:51:21.982Z,987.54
2023-12-26T05:52:21.902Z,987.58
2023-12-26T05:53:21.903Z,987.56
2023-12-26T05:54:22.034Z,987.61
2023-12-26T05:55:21.871Z,987.66
2023-12-26T05:56:21.876Z,987.67
2023-12-26T05:57:22.107Z,987.68
2023-12-26T05:58:21.893Z,987.69
2023-12-26T05:59:21.828Z,987.72
2023-12-26T06:00:21.953Z,987.67
2023-12-26T06:01:21.807Z,987.71
2023-12-26T06:02:21.826Z,987.68
2023-12-26T06:03:21.953Z,987.68
2023-12-26T06:04:21.790Z,987.70
2023-12-26T06:05:21.774Z,987.74
2023-12-26T06:06:21.853Z,987.80
2023-12-26T06:07:21.765Z,987.79
2023-12-26T06:08:21.737Z,987.74
2023-12-26T06:09:21.801Z,987.74
2023-12-26T06:10:21.717Z,987.78
2023-12-26T06:11:21.702Z,987.84
2023-12-26T06:12:21.729Z,987.83
2023-12-26T06:13:21.674Z,987.81
2023-12-26T06:14:21.681Z,987.81
2023-12-26T06:15:21.694Z,987.84
2023-12-26T06:16:21.665Z,987.86
2023-12-26T06:17:21.657Z,987.90
2023-12-26T06:18:21.741Z,987.93
2023-12-26T06:19:21.759Z,987.90
2023-12-26T06:20:21.687Z,987.95
2023-12-26T06:21:21.642Z,987.98
2023-12-26T06:22:21.607Z,988.01
2023-12-26T06:23:21.573Z,988.02
2023-12-26T06:24:21.638Z,988.03
2023-12-26T06:25:21.558Z,988.07
2023-12-26T06:26:21.563Z,988.11
2023-12-26T06:27:21.599Z,988.10
2023-12-26T06:28:21.521Z,988.13
2023-12-26T06:29:21.510Z,988.16
2023-12-26T06:30:21.643Z,988.25
2023-12-26T06:31:21.574Z,988.28
2023-12-26T06:32:21.487Z,988.32
2023-12-26T06:33:21.647Z,988.36
2023-12-26T06:34:21.601Z,988.38
2023-12-26T06:35:21.463Z,988.41
2023-12-26T06:36:21.517Z,988.36
2023-12-26T06:37:21.424Z,988.34
2023-12-26T06:38:21.425Z,988.32
2023-12-26T06:39:21.427Z,988.33
2023-12-26T06:40:21.420Z,988.40
2023-12-26T06:41:21.383Z,988.41
2023-12-26T06:42:21.446Z,988.44
2023-12-26T06:43:21.364Z,988.48
2023-12-26T06:44:21.376Z,988.54
2023-12-26T06:45:21.368Z,988.55
2023-12-26T06:46:21.333Z,988.58
2023-12-26T06:47:21.397Z,988.55
2023-12-26T06:48:21.589Z,988.58
2023-12-26T06:49:21.443Z,988.60
2023-12-26T06:50:21.294Z,988.64
2023-12-26T06:51:21.288Z,988.63
2023-12-26T06:52:21.285Z,988.66
2023-12-26T06:53:21.260Z,988.69
2023-12-26T06:54:21.453Z,988.69
2023-12-26T06:55:21.236Z,988.67
2023-12-26T06:56:21.251Z,988.65
2023-12-26T06:57:21.183Z,988.71
2023-12-26T06:58:21.193Z,988.69
2023-12-26T06:59:21.179Z,988.71
2023-12-26T07:00:21.152Z,988.69
2023-12-26T07:01:21.155Z,988.72
2023-12-26T07:02:21.126Z,988.75
2023-12-26T07:03:21.226Z,988.82
2023-12-26T07:04:21.155Z,988.88
2023-12-26T07:05:21.115Z,988.86
2023-12-26T07:06:21.092Z,988.86
2023-12-26T07:07:21.066Z,988.90
2023-12-26T07:08:21.062Z,988.90
2023-12-26T07:09:21.130Z,988.89
2023-12-26T07:10:21.041Z,988.94
2023-12-26T07:11:21.018Z,989.01
2023-12-26T07:12:21.142Z,989.01
2023-12-26T07:13:21.004Z,989.04
2023-12-26T07:14:20.988Z,989.10
2023-12-26T07:15:21.054Z,989.14
2023-12-26T07:16:20.979Z,989.15
2023-12-26T07:17:20.963Z,989.17
2023-12-26T07:18:21.238Z,989.16
2023-12-26T07:19:21.055Z,989.17
2023-12-26T07:20:20.943Z,989.20
2023-12-26T07:21:20.923Z,989.16
2023-12-26T07:22:20.947Z,989.18
2023-12-26T07:23:20.887Z,989.21
2023-12-26T07:24:20.914Z,989.27
2023-12-26T07:25:20.873Z,989.33
2023-12-26T07:26:20.905Z,989.35
2023-12-26T07:27:20.888Z,989.34
2023-12-26T07:28:20.842Z,989.38
2023-12-26T07:29:20.835Z,989.41
2023-12-26T07:30:20.903Z,989.40
2023-12-26T07:31:20.824Z,989.47
2023-12-26T07:32:20.798Z,989.46
2023-12-26T07:33:20.874Z,989.57
2023-12-26T07:34:20.808Z,989.62
2023-12-26T07:35:20.757Z,989.67
2023-12-26T07:36:20.880Z,989.71
2023-12-26T07:37:20.773Z,989.68
2023-12-26T07:38:20.737Z,989.59
2023-12-26T07:39:20.817Z,989.56
2023-12-26T07:40:20.981Z,989.61
2023-12-26T07:41:20.721Z,989.62
2023-12-26T07:42:20.777Z,989.63
2023-12-26T07:43:20.681Z,989.64
2023-12-26T07:44:20.688Z,989.69
2023-12-26T07:45:20.840Z,989.73
2023-12-26T07:46:20.658Z,989.80
2023-12-26T07:47:20.640Z,989.80
2023-12-26T07:48:20.764Z,989.84
2023-12-26T07:49:20.782Z,989.89
2023-12-26T07:50:21.298Z,989.94
2023-12-26T07:51:20.627Z,990.03
2023-12-26T07:52:20.591Z,990.05
2023-12-26T07:53:20.580Z,990.03
2023-12-26T07:54:20.615Z,990.07
2023-12-26T07:55:21.224Z,990.12
2023-12-26T07:56:20.558Z,990.06
2023-12-26T07:57:20.550Z,990.07
2023-12-26T07:58:20.550Z,990.10
2023-12-26T07:59:20.526Z,990.14
2023-12-26T08:00:20.603Z,990.14
2023-12-26T08:01:20.497Z,990.12
2023-12-26T08:02:20.487Z,990.19
2023-12-26T08:03:20.551Z,990.08
2023-12-26T08:04:20.505Z,990.13
2023-12-26T08:05:20.456Z,990.11
2023-12-26T08:06:20.502Z,990.17
2023-12-26T08:07:20.444Z,990.15
2023-12-26T08:08:20.436Z,990.25
2023-12-26T08:09:20.495Z,990.19
2023-12-26T08:10:20.428Z,990.16
2023-12-26T08:11:20.391Z,990.18
2023-12-26T08:12:20.499Z,990.17
2023-12-26T08:13:20.380Z,990.12
2023-12-26T08:14:20.366Z,990.19
2023-12-26T08:15:20.449Z,990.19
2023-12-26T08:16:20.348Z,990.26
2023-12-26T08:17:20.355Z,990.29
2023-12-26T08:18:20.489Z,990.35
2023-12-26T08:19:21.444Z,990.34
2023-12-26T08:20:20.299Z,990.32
2023-12-26T08:21:20.329Z,990.41
2023-12-26T08:22:20.320Z,990.45
2023-12-26T08:23:20.279Z,990.52
2023-12-26T08:24:20.287Z,990.54
2023-12-26T08:25:20.530Z,990.52
2023-12-26T08:26:20.234Z,990.52
2023-12-26T08:27:20.347Z,990.54
2023-12-26T08:28:20.212Z,990.53
2023-12-26T08:29:20.216Z,990.60
2023-12-26T08:30:20.295Z,990.55
2023-12-26T08:31:20.238Z,990.66
2023-12-26T08:32:20.176Z,990.71
2023-12-26T08:33:20.236Z,990.73
2023-12-26T08:34:20.257Z,990.80
2023-12-26T08:35:20.189Z,990.82
2023-12-26T08:36:20.217Z,990.79
2023-12-26T08:37:20.138Z,990.84
2023-12-26T08:38:20.106Z,990.77
2023-12-26T08:39:20.209Z,990.89
2023-12-26T08:40:20.085Z,990.89
2023-12-26T08:41:20.112Z,990.97
2023-12-26T08:42:20.134Z,990.92
2023-12-26T08:43:20.064Z,990.93
2023-12-26T08:44:20.050Z,990.94
2023-12-26T08:45:20.195Z,990.98
2023-12-26T08:46:20.051Z,990.98
2023-12-26T08:47:20.022Z,991.01
2023-12-26T08:48:20.079Z,991.02
2023-12-26T08:49:20.063Z,991.12
2023-12-26T08:50:20.022Z,991.16
2023-12-26T08:51:20.022Z,991.18
2023-12-26T08:52:19.955Z,991.23
2023-12-26T08:53:19.953Z,991.25
2023-12-26T08:54:19.957Z,991.23
2023-12-26T08:55:19.951Z,991.23
2023-12-26T08:56:19.911Z,991.19
2023-12-26T08:57:19.964Z,991.23
2023-12-26T08:58:19.888Z,991.27
2023-12-26T08:59:19.892Z,991.30
2023-12-26T09:00:19.931Z,991.28
2023-12-26T09:01:19.863Z,991.33
2023-12-26T09:02:19.850Z,991.26
2023-12-26T09:03:19.872Z,991.30
2023-12-26T09:04:19.909Z,991.16
2023-12-26T09:05:19.837Z,991.24
2023-12-26T09:06:19.928Z,991.26
2023-12-26T09:07:19.796Z,991.29
2023-12-26T09:08:19.786Z,991.38
2023-12-26T09:09:19.858Z,991.32
2023-12-26T09:10:19.762Z,991.33
2023-12-26T09:11:19.764Z,991.27
2023-12-26T09:12:19.854Z,991.27
2023-12-26T09:13:19.738Z,991.30
2023-12-26T09:14:19.736Z,991.31
2023-12-26T09:15:19.741Z,991.38
2023-12-26T09:16:19.700Z,991.41
2023-12-26T09:17:19.788Z,991.41
2023-12-26T09:18:19.763Z,991.46
2023-12-26T09:19:19.848Z,991.50
2023-12-26T09:20:19.666Z,991.56
2023-12-26T09:21:19.724Z,991.60
2023-12-26T09:22:19.649Z,991.63
2023-12-26T09:23:19.654Z,991.65
2023-12-26T09:24:19.721Z,991.70
2023-12-26T09:25:19.614Z,991.67
2023-12-26T09:26:19.592Z,991.71
2023-12-26T09:27:19.625Z,991.77
2023-12-26T09:28:19.578Z,991.80
2023-12-26T09:29:19.584Z,991.78
2023-12-26T09:30:19.865Z,991.80
2023-12-26T09:31:19.569Z,991.86
2023-12-26T09:32:19.557Z,991.86
2023-12-26T09:33:19.644Z,991.86
2023-12-26T09:34:19.716Z,991.94
2023-12-26T09:35:19.505Z,991.92
2023-12-26T09:36:19.517Z,991.96
2023-12-26T09:37:19.498Z,991.99
2023-12-26T09:38:19.469Z,992.05
2023-12-26T09:39:19.494Z,992.09
2023-12-26T09:40:19.447Z,992.11
2023-12-26T09:41:19.439Z,992.14
2023-12-26T09:42:19.522Z,992.18
2023-12-26T09:43:19.431Z,992.19
2023-12-26T09:44:19.405Z,992.16
2023-12-26T09:45:19.427Z,992.21
2023-12-26T09:46:19.395Z,992.19
2023-12-26T09:47:19.393Z,992.17
2023-12-26T09:48:19.480Z,992.19
2023-12-26T09:49:19.563Z,992.21
2023-12-26T09:50:19.464Z,992.23
2023-12-26T09:51:19.452Z,992.24
2023-12-26T09:52:19.323Z,992.24
2023-12-26T09:53:19.316Z,992.25
2023-12-26T09:55:19.317Z,992.29
2023-12-26T09:56:19.849Z,992.29
2023-12-26T09:57:19.353Z,992.26
2023-12-26T09:58:19.263Z,992.29
2023-12-26T09:59:19.270Z,992.30
2023-12-26T10:00:19.285Z,992.27
2023-12-26T10:01:19.306Z,992.24
2023-12-26T10:02:19.229Z,992.22
2023-12-26T10:03:19.301Z,992.25
2023-12-26T10:04:19.196Z,992.25
2023-12-26T10:05:19.443Z,992.28
2023-12-26T10:06:19.238Z,992.32
2023-12-26T10:07:19.171Z,992.33
2023-12-26T10:08:19.152Z,992.33
2023-12-26T10:09:19.181Z,992.36
2023-12-26T10:10:19.148Z,992.40
2023-12-26T10:11:19.131Z,992.44
2023-12-26T10:12:19.205Z,992.47
2023-12-26T10:13:19.108Z,992.46
2023-12-26T10:14:19.108Z,992.44
2023-12-26T10:15:19.262Z,992.44
2023-12-26T10:16:19.079Z,992.45
2023-12-26T10:17:19.065Z,992.47
2023-12-26T10:18:19.190Z,992.45
2023-12-26T10:19:19.142Z,992.47
2023-12-26T10:20:19.026Z,992.45
2023-12-26T10:21:19.224Z,992.47
2023-12-26T10:22:19.006Z,992.41
2023-12-26T10:23:19.012Z,992.47
2023-12-26T10:24:19.064Z,992.49
2023-12-26T10:25:18.999Z,992.61
2023-12-26T10:26:18.969Z,992.64
2023-12-26T10:27:19.017Z,992.65
2023-12-26T10:28:18.959Z,992.60
2023-12-26T10:29:18.965Z,992.59
2023-12-26T10:30:19.113Z,992.60
2023-12-26T10:31:19.035Z,992.63
2023-12-26T10:32:18.907Z,992.65
2023-12-26T10:33:19.017Z,992.64
2023-12-26T10:34:19.140Z,992.64
2023-12-26T10:35:18.889Z,992.64
2023-12-26T10:36:18.902Z,992.67
2023-12-26T10:37:18.866Z,992.71
2023-12-26T10:38:18.870Z,992.71
2023-12-26T10:39:19.228Z,992.71
2023-12-26T10:40:18.827Z,992.74
2023-12-26T10:41:18.823Z,992.78
2023-12-26T10:42:18.874Z,992.75
2023-12-26T10:43:18.833Z,992.76
2023-12-26T10:44:18.788Z,992.77
2023-12-26T10:45:18.822Z,992.74
2023-12-26T10:46:18.781Z,992.73
2023-12-26T10:47:18.972Z,992.71
2023-12-26T10:48:18.874Z,992.73
2023-12-26T10:49:18.974Z,992.71
2023-12-26T10:50:18.724Z,992.78
2023-12-26T10:51:18.724Z,992.79
2023-12-26T10:52:19.280Z,992.77
2023-12-26T10:53:18.709Z,992.80
2023-12-26T10:54:18.718Z,992.79
2023-12-26T10:55:18.688Z,992.78
2023-12-26T10:56:18.694Z,992.81
2023-12-26T10:57:18.729Z,992.84
2023-12-26T10:58:18.649Z,992.93
2023-12-26T10:59:18.664Z,992.89
2023-12-26T11:00:18.711Z,992.84
2023-12-26T11:01:18.732Z,992.94
2023-12-26T11:02:18.610Z,992.97
2023-12-26T11:03:18.673Z,992.98
2023-12-26T11:04:18.657Z,992.98
2023-12-26T11:05:18.619Z,993.00
2023-12-26T11:06:21.050Z,992.96
2023-12-26T11:07:18.558Z,992.98
2023-12-26T11:08:18.541Z,993.02
2023-12-26T11:09:18.630Z,993.02
2023-12-26T11:10:18.554Z,993.03
2023-12-26T11:11:18.552Z,993.06
2023-12-26T11:12:18.537Z,993.06
2023-12-26T11:13:18.515Z,993.04
2023-12-26T11:14:18.475Z,993.07
2023-12-26T11:15:18.574Z,993.05
2023-12-26T11:16:18.459Z,993.05
2023-12-26T11:17:18.530Z,993.06
2023-12-26T11:18:18.616Z,993.07
2023-12-26T11:19:18.524Z,993.08
2023-12-26T11:20:18.570Z,993.06
2023-12-26T11:21:18.492Z,993.04
2023-12-26T11:22:18.402Z,993.13
2023-12-26T11:23:18.390Z,993.17
2023-12-26T11:24:18.960Z,993.12
2023-12-26T11:25:18.398Z,993.20
2023-12-26T11:26:18.368Z,993.19
2023-12-26T11:27:18.407Z,993.23
2023-12-26T11:28:18.338Z,993.19
2023-12-26T11:29:18.342Z,993.24
2023-12-26T11:30:18.377Z,993.27
2023-12-26T11:31:18.359Z,993.23
2023-12-26T11:32:18.297Z,993.27
2023-12-26T11:33:18.367Z,993.37
2023-12-26T11:34:18.393Z,993.32
2023-12-26T11:35:18.262Z,993.36
2023-12-26T11:36:18.300Z,993.27
2023-12-26T11:37:18.249Z,993.32
2023-12-26T11:38:18.253Z,993.34
2023-12-26T11:39:18.374Z,993.31
2023-12-26T11:40:18.204Z,993.37
2023-12-26T11:41:18.203Z,993.38
2023-12-26T11:42:18.259Z,993.39
2023-12-26T11:43:18.191Z,993.38
2023-12-26T11:44:18.168Z,993.38
2023-12-26T11:45:18.305Z,993.40
2023-12-26T11:46:18.136Z,993.37
2023-12-26T11:47:18.158Z,993.39
2023-12-26T11:48:18.286Z,993.38
2023-12-26T11:49:18.226Z,993.41
2023-12-26T11:50:18.097Z,993.38
2023-12-26T11:51:18.177Z,993.41
2023-12-26T11:52:18.155Z,993.39
2023-12-26T11:53:18.082Z,993.43
2023-12-26T11:54:18.090Z,993.41
2023-12-26T11:55:18.047Z,993.42
2023-12-26T11:56:18.040Z,993.39
2023-12-26T11:57:18.061Z,993.38
2023-12-26T11:58:18.016Z,993.40
2023-12-26T11:59:18.012Z,993.39
2023-12-26T12:00:18.075Z,993.38
2023-12-26T12:01:18.010Z,993.38
2023-12-26T12:02:17.990Z,993.39
2023-12-26T12:03:18.047Z,993.37
2023-12-26T12:04:18.017Z,993.38
2023-12-26T12:05:17.949Z,993.39
2023-12-26T12:06:18.128Z,993.36
2023-12-26T12:07:17.950Z,993.29
2023-12-26T12:08:17.913Z,993.32
2023-12-26T12:09:18.005Z,993.26
2023-12-26T12:10:17.883Z,993.25
2023-12-26T12:11:17.918Z,993.23
2023-12-26T12:12:17.890Z,993.20
2023-12-26T12:13:17.859Z,993.23
2023-12-26T12:14:17.845Z,993.25
2023-12-26T12:15:17.928Z,993.28
2023-12-26T12:16:17.845Z,993.29
2023-12-26T12:17:17.821Z,993.30
2023-12-26T12:18:17.893Z,993.32
2023-12-26T12:19:17.924Z,993.34
2023-12-26T12:20:17.792Z,993.33
2023-12-26T12:21:17.884Z,993.30
2023-12-26T12:22:17.765Z,993.30
2023-12-26T12:23:17.766Z,993.30
2023-12-26T12:24:17.778Z,993.29
2023-12-26T12:25:17.790Z,993.29
2023-12-26T12:26:17.722Z,993.29
2023-12-26T12:27:17.723Z,993.34
2023-12-26T12:28:17.706Z,993.36
2023-12-26T12:29:17.692Z,993.37